Time;durP1;ratioP1;P1;durP2;ratioP2;P2;SDS_P1;SDS_P2;PMS_P1;PMS_P2;Temp;Humidity;BMP_temperature;BMP_pressure;BME280_temperature;BME280_humidity;BME280_pressure;Samples;Min_cycle;Max_cycle;Signal;HPM_P1;HPM_P2
2021/03/15 00:00:21;;;;;;;9.55;1.92;;;;;;;7.81;67.76;101049.66;5052420;28;20025;-62
2021/03/15 00:02:47;;;;;;;6.95;1.90;;;;;;;7.78;67.91;101055.56;5046835;28;20088;-65
2021/03/15 00:05:14;;;;;;;16.05;3.05;;;;;;;7.57;67.63;101025.34;5045782;28;20474;-62
2021/03/15 00:07:40;;;;;;;9.13;1.95;;;;;;;7.76;67.70;101052.31;5041824;28;20049;-63
2021/03/15 00:10:07;;;;;;;8.60;1.88;;;;;;;7.70;68.34;101040.53;5038321;28;20060;-62
2021/03/15 00:12:33;;;;;;;10.57;2.00;;;;;;;7.69;68.09;101042.41;5040493;28;20502;-64
2021/03/15 00:14:59;;;;;;;9.43;1.80;;;;;;;7.68;68.04;101039.94;5048155;28;20104;-62
2021/03/15 00:17:24;;;;;;;7.55;1.50;;;;;;;7.65;67.93;101035.81;5027655;28;20025;-62
2021/03/15 00:19:50;;;;;;;9.55;1.88;;;;;;;7.65;68.05;101041.25;5038100;28;20024;-62
2021/03/15 00:22:15;;;;;;;7.82;1.65;;;;;;;7.66;68.31;101050.19;5051302;28;20018;-63
2021/03/15 00:24:40;;;;;;;7.85;1.73;;;;;;;7.67;68.53;101049.13;5038719;28;20109;-63
2021/03/15 00:27:06;;;;;;;12.20;1.92;;;;;;;7.67;68.62;101046.44;5038395;28;20025;-62
2021/03/15 00:29:31;;;;;;;9.93;1.80;;;;;;;7.66;68.61;101045.63;5037844;28;20021;-64
2021/03/15 00:31:57;;;;;;;11.23;2.53;;;;;;;7.71;68.23;101050.31;5026951;28;20104;-62
2021/03/15 00:34:22;;;;;;;8.90;2.20;;;;;;;7.74;68.10;101049.81;5028515;28;20021;-62
2021/03/15 00:36:48;;;;;;;11.02;2.35;;;;;;;7.75;68.09;101050.66;5053381;28;20493;-65
2021/03/15 00:39:13;;;;;;;6.95;1.77;;;;;;;7.76;68.49;101044.97;5055916;28;20025;-62
2021/03/15 00:41:40;;;;;;;12.15;2.58;;;;;;;7.78;68.61;101053.69;5037137;28;20048;-62
2021/03/15 00:44:06;;;;;;;5.97;1.40;;;;;;;7.80;68.32;101050.72;5030603;28;20025;-63
2021/03/15 00:46:32;;;;;;;9.00;1.80;;;;;;;7.78;68.41;101044.72;5027855;28;20041;-64
2021/03/15 00:48:57;;;;;;;7.32;1.95;;;;;;;7.80;68.31;101045.31;5057818;28;20400;-62
2021/03/15 00:51:23;;;;;;;6.72;1.33;;;;;;;7.84;68.13;101046.47;5053348;28;20489;-63
2021/03/15 00:53:48;;;;;;;7.25;1.80;;;;;;;7.84;68.47;101047.28;5036255;28;20029;-63
2021/03/15 00:56:14;;;;;;;9.18;1.65;;;;;;;7.87;68.45;101035.94;5036899;28;20454;-62
2021/03/15 00:58:39;;;;;;;7.25;1.70;;;;;;;7.90;68.11;101026.47;5038576;28;20025;-62
2021/03/15 01:01:04;;;;;;;6.47;1.77;;;;;;;7.92;68.05;101035.22;5037335;28;20034;-62
2021/03/15 01:03:30;;;;;;;6.68;1.63;;;;;;;7.92;68.31;101032.50;5038571;28;20088;-62
2021/03/15 01:05:57;;;;;;;8.93;2.00;;;;;;;7.90;68.26;101033.78;5040106;28;20025;-62
2021/03/15 01:08:23;;;;;;;10.10;1.92;;;;;;;7.88;68.30;101028.63;5057987;28;20021;-62
2021/03/15 01:10:49;;;;;;;9.68;1.83;;;;;;;7.72;68.45;101024.81;5058120;28;20020;-63
2021/03/15 01:13:15;;;;;;;7.05;1.75;;;;;;;7.87;68.63;101045.97;5058247;28;20025;-62
2021/03/15 01:15:42;;;;;;;8.02;1.65;;;;;;;7.85;68.82;101035.38;5040867;28;20234;-62
2021/03/15 01:18:08;;;;;;;8.88;1.70;;;;;;;7.83;68.51;101028.53;5029374;28;20021;-62
2021/03/15 01:20:34;;;;;;;10.55;1.95;;;;;;;7.88;68.90;101031.31;5038760;28;20047;-63
2021/03/15 01:23:00;;;;;;;9.52;1.83;;;;;;;7.87;68.70;101044.09;5036497;28;20362;-62
2021/03/15 01:25:36;;;;;;;9.73;1.80;;;;;;;7.86;68.56;101028.88;5046292;28;20041;-62
2021/03/15 01:28:04;;;;;;;10.60;2.13;;;;;;;7.84;68.74;101031.00;5031076;28;20032;-64
2021/03/15 01:30:32;;;;;;;9.68;1.98;;;;;;;7.84;69.33;101033.72;5057359;28;20032;-62
2021/03/15 01:32:58;;;;;;;10.02;1.80;;;;;;;7.84;69.18;101025.56;5032262;28;20044;-62
2021/03/15 01:35:24;;;;;;;8.23;2.00;;;;;;;7.84;69.60;101035.63;5043895;28;20448;-62
2021/03/15 01:37:50;;;;;;;6.03;1.65;;;;;;;7.81;70.47;101031.47;5023825;28;20096;-62
2021/03/15 01:40:16;;;;;;;15.98;2.67;;;;;;;7.82;70.89;101032.31;5036252;28;20033;-65
2021/03/15 01:42:43;;;;;;;9.63;2.15;;;;;;;7.76;71.91;101027.88;5038046;28;20059;-62
2021/03/15 01:45:09;;;;;;;10.85;2.10;;;;;;;7.65;72.39;101014.09;5039893;28;20511;-62
2021/03/15 01:47:36;;;;;;;10.95;2.15;;;;;;;7.70;73.29;101026.94;5026648;28;20085;-62
2021/03/15 01:50:03;;;;;;;7.38;2.17;;;;;;;7.69;72.95;101031.53;5043600;28;20036;-63
2021/03/15 01:52:29;;;;;;;8.25;2.20;;;;;;;7.68;73.27;101021.78;5056410;28;20449;-62
2021/03/15 01:54:55;;;;;;;12.98;2.17;;;;;;;7.65;72.66;101003.25;5042986;28;20112;-62
2021/03/15 01:57:20;;;;;;;15.55;3.05;;;;;;;7.53;73.03;100976.16;5026565;28;20053;-62
2021/03/15 01:59:46;;;;;;;10.75;2.10;;;;;;;7.74;72.44;100997.41;5038260;28;20029;-64
2021/03/15 02:02:12;;;;;;;8.45;2.00;;;;;;;7.77;72.69;101005.91;5057118;28;20112;-62
2021/03/15 02:04:38;;;;;;;13.00;2.33;;;;;;;7.76;72.48;101011.59;5051109;28;20025;-61
2021/03/15 02:07:03;;;;;;;13.02;2.05;;;;;;;7.73;72.46;101012.88;5056850;28;20035;-63
2021/03/15 02:09:29;;;;;;;10.25;2.25;;;;;;;7.74;72.09;101014.50;5052352;28;20032;-62
2021/03/15 02:12:09;;;;;;;8.98;2.00;;;;;;;7.74;72.28;101013.72;5037380;28;20068;-62
2021/03/15 02:14:57;;;;;;;9.13;2.13;;;;;;;7.75;72.13;101005.31;5046527;28;20108;-62
2021/03/15 02:17:33;;;;;;;9.02;2.45;;;;;;;7.70;71.73;100999.81;5038046;28;20044;-62
2021/03/15 02:20:29;;;;;;;11.32;2.50;;;;;;;7.79;71.59;101002.94;5043717;28;20060;-62
2021/03/15 02:23:21;;;;;;;11.70;2.40;;;;;;;7.78;72.03;100995.84;5015686;28;20046;-62
2021/03/15 02:26:24;;;;;;;9.85;2.05;;;;;;;7.78;71.63;101007.53;5027221;28;20250;-64
2021/03/15 02:29:17;;;;;;;10.23;1.83;;;;;;;7.81;71.99;101003.50;5042742;28;20025;-62
2021/03/15 02:31:58;;;;;;;11.65;2.13;;;;;;;7.81;71.62;100998.09;5046847;28;20036;-62
2021/03/15 02:34:42;;;;;;;9.65;2.08;;;;;;;7.81;71.84;100995.38;5050671;28;20037;-61
2021/03/15 02:37:12;;;;;;;7.68;2.00;;;;;;;7.80;71.79;100991.00;5050989;28;20486;-62
2021/03/15 02:39:45;;;;;;;13.02;2.22;;;;;;;7.67;71.95;100970.41;5053494;28;20072;-62
2021/03/15 02:42:15;;;;;;;15.88;2.28;;;;;;;7.78;72.09;100983.13;5053114;28;20059;-63
2021/03/15 02:44:45;;;;;;;8.90;1.95;;;;;;;7.77;71.76;100977.94;5056560;28;20607;-62
2021/03/15 02:47:20;;;;;;;10.90;2.22;;;;;;;7.77;72.23;100986.88;5056096;28;20118;-63
2021/03/15 02:49:49;;;;;;;12.00;1.90;;;;;;;7.77;71.97;100978.75;5048676;28;20068;-62
2021/03/15 02:52:17;;;;;;;10.65;2.00;;;;;;;7.77;71.59;100973.31;5026421;28;20029;-62
2021/03/15 02:54:45;;;;;;;12.05;1.98;;;;;;;7.35;72.23;100908.53;5038611;28;20036;-62
2021/03/15 02:57:15;;;;;;;10.85;2.28;;;;;;;7.82;71.93;100983.44;5047199;28;20498;-62
2021/03/15 02:59:42;;;;;;;11.25;2.38;;;;;;;7.77;71.61;100959.75;5024743;28;20030;-62
2021/03/15 03:02:10;;;;;;;7.32;1.90;;;;;;;7.76;71.72;100960.00;5056217;28;20021;-62
2021/03/15 03:04:37;;;;;;;10.30;2.15;;;;;;;7.85;71.58;100972.09;5041878;28;20398;-61
2021/03/15 03:07:05;;;;;;;8.77;2.05;;;;;;;7.81;71.57;100960.88;5049623;28;20469;-65
2021/03/15 03:09:33;;;;;;;9.50;2.28;;;;;;;7.86;71.79;100963.69;5056101;28;20358;-63
2021/03/15 03:11:59;;;;;;;8.05;1.98;;;;;;;7.81;71.49;100954.66;5056232;28;20029;-62
2021/03/15 03:14:27;;;;;;;10.52;1.95;;;;;;;7.86;71.84;100963.69;5055317;28;20051;-62
2021/03/15 03:16:55;;;;;;;16.33;2.25;;;;;;;7.87;71.72;100969.94;5032678;28;20029;-62
2021/03/15 03:19:22;;;;;;;8.23;1.70;;;;;;;7.86;71.38;100966.41;5023617;28;20108;-62
2021/03/15 03:21:50;;;;;;;8.38;1.73;;;;;;;7.87;71.51;100954.50;5053347;28;20025;-63
2021/03/15 03:24:15;;;;;;;8.13;1.77;;;;;;;7.87;71.44;100959.91;5034256;28;20025;-63
2021/03/15 03:26:43;;;;;;;9.63;1.75;;;;;;;7.86;71.82;100962.84;5035759;28;20026;-63
2021/03/15 03:29:11;;;;;;;13.10;1.95;;;;;;;7.87;71.31;100953.66;5035679;28;20033;-62
2021/03/15 03:31:40;;;;;;;14.95;2.42;;;;;;;7.48;71.54;100897.38;5035319;28;20033;-62
2021/03/15 03:34:07;;;;;;;10.05;2.08;;;;;;;7.87;71.61;100948.22;5023377;28;20060;-62
2021/03/15 03:36:33;;;;;;;7.32;1.92;;;;;;;7.87;71.76;100959.91;5046519;28;20086;-64
2021/03/15 03:38:59;;;;;;;11.45;2.25;;;;;;;7.84;71.39;100954.16;5027258;28;20370;-62
2021/03/15 03:41:24;;;;;;;10.65;2.58;;;;;;;7.80;71.38;100953.84;5049689;28;20098;-62
2021/03/15 03:43:50;;;;;;;8.15;1.65;;;;;;;7.77;71.61;100951.59;5033237;28;20034;-62
2021/03/15 03:46:16;;;;;;;12.52;2.22;;;;;;;7.76;71.51;100958.09;5016851;28;20050;-65
2021/03/15 03:48:42;;;;;;;9.13;2.00;;;;;;;7.74;71.57;100951.28;5033346;28;20514;-62
2021/03/15 03:51:09;;;;;;;7.50;1.58;;;;;;;7.81;71.80;100957.34;5035472;28;20026;-62
2021/03/15 03:53:53;;;;;;;11.93;2.15;;;;;;;7.84;71.53;100959.59;5026423;28;20051;-62
2021/03/15 03:56:32;;;;;;;8.95;1.45;;;;;;;7.84;71.21;100965.84;5041375;28;20032;-63
2021/03/15 03:58:59;;;;;;;5.63;1.40;;;;;;;7.80;71.60;100959.25;5037739;28;20037;-62
2021/03/15 04:01:32;;;;;;;7.32;1.73;;;;;;;7.85;71.41;100959.34;5023718;28;20034;-62
2021/03/15 04:04:00;;;;;;;6.68;1.73;;;;;;;7.79;71.33;100962.19;5022038;28;20034;-62
2021/03/15 04:06:29;;;;;;;11.13;1.50;;;;;;;7.83;71.31;100966.09;5014174;28;20181;-62
2021/03/15 04:08:59;;;;;;;8.80;1.70;;;;;;;7.83;71.68;100968.81;5031922;28;20120;-62
2021/03/15 04:11:28;;;;;;;9.75;1.67;;;;;;;7.81;71.09;100957.34;5021427;28;20032;-63
2021/03/15 04:13:54;;;;;;;10.32;1.65;;;;;;;7.84;71.50;100965.84;5031137;28;20030;-62
2021/03/15 04:16:35;;;;;;;6.57;1.58;;;;;;;7.86;71.08;100966.41;5036731;28;20029;-62
2021/03/15 04:19:03;;;;;;;7.05;1.48;;;;;;;7.87;70.92;100970.78;5046879;28;20091;-64
2021/03/15 04:21:30;;;;;;;6.78;1.52;;;;;;;7.87;70.75;100959.06;5051578;28;20033;-63
2021/03/15 04:23:58;;;;;;;4.70;1.38;;;;;;;7.87;70.99;100964.50;5033363;28;20030;-62
2021/03/15 04:26:25;;;;;;;8.32;1.45;;;;;;;7.85;70.82;100967.47;5035756;28;20025;-62
2021/03/15 04:28:53;;;;;;;6.55;1.20;;;;;;;7.84;70.85;100965.03;5032263;28;20470;-62
2021/03/15 04:31:20;;;;;;;9.40;1.40;;;;;;;7.76;70.82;100941.00;5043554;28;20043;-63
2021/03/15 04:33:46;;;;;;;7.70;1.52;;;;;;;7.84;70.95;100967.75;5043174;28;20041;-62
2021/03/15 04:36:14;;;;;;;5.88;1.25;;;;;;;7.83;70.75;100950.59;5051448;28;20386;-62
2021/03/15 04:38:42;;;;;;;5.90;1.77;;;;;;;7.83;71.03;100947.09;5040426;28;20045;-63
2021/03/15 04:41:09;;;;;;;8.60;1.40;;;;;;;7.83;71.01;100950.59;5038807;28;20037;-62
2021/03/15 04:43:39;;;;;;;8.20;2.13;;;;;;;7.84;70.95;100943.31;5031580;28;20057;-62
2021/03/15 04:46:06;;;;;;;7.68;1.80;;;;;;;7.81;70.91;100947.31;5019939;28;20054;-62
2021/03/15 04:48:33;;;;;;;4.65;1.13;;;;;;;7.81;70.47;100936.44;5058658;28;20033;-64
2021/03/15 04:51:05;;;;;;;7.03;1.30;;;;;;;7.83;70.94;100944.38;5055008;28;20499;-62
2021/03/15 04:53:33;;;;;;;8.68;1.90;;;;;;;7.83;70.67;100942.47;5050712;28;20026;-62
2021/03/15 04:56:02;;;;;;;9.05;1.67;;;;;;;7.85;70.56;100940.31;5049527;28;20025;-62
2021/03/15 04:58:30;;;;;;;5.93;1.50;;;;;;;7.83;70.34;100931.59;5058700;28;20366;-62
2021/03/15 05:01:00;;;;;;;8.20;1.45;;;;;;;7.84;70.22;100937.88;5033979;28;20037;-63
2021/03/15 05:03:27;;;;;;;6.55;1.33;;;;;;;7.89;70.41;100943.38;5031189;28;20025;-62
2021/03/15 05:05:54;;;;;;;6.90;1.30;;;;;;;7.87;70.35;100943.63;5044998;28;20104;-62
2021/03/15 05:08:24;;;;;;;6.82;1.65;;;;;;;7.89;70.35;100946.09;5040331;28;20031;-64
2021/03/15 05:10:51;;;;;;;7.45;1.40;;;;;;;7.87;70.09;100942.78;5057106;28;20070;-62
2021/03/15 05:13:18;;;;;;;6.22;1.30;;;;;;;7.88;70.00;100939.84;5056262;28;20025;-63
2021/03/15 05:15:44;;;;;;;5.45;1.10;;;;;;;7.88;70.03;100956.13;5045246;28;20029;-62
2021/03/15 05:18:13;;;;;;;5.60;1.10;;;;;;;7.88;69.94;100955.31;5055409;28;20495;-64
2021/03/15 05:20:39;;;;;;;6.68;1.23;;;;;;;7.92;70.01;100955.63;5021485;28;20041;-62
2021/03/15 05:23:10;;;;;;;4.88;1.08;;;;;;;7.88;69.81;100961.56;5040137;28;20100;-62
2021/03/15 05:25:38;;;;;;;4.40;1.13;;;;;;;7.92;69.63;100969.19;5037587;28;20025;-62
2021/03/15 05:28:06;;;;;;;8.40;1.27;;;;;;;7.94;69.51;100976.03;5036501;28;20520;-62
2021/03/15 05:30:34;;;;;;;5.13;1.10;;;;;;;7.88;69.83;100968.88;5037152;28;20025;-64
2021/03/15 05:33:02;;;;;;;7.15;1.40;;;;;;;7.88;69.61;100977.03;5035657;28;20030;-62
2021/03/15 05:35:29;;;;;;;8.32;1.40;;;;;;;7.91;69.55;100981.13;5040039;28;20025;-62
2021/03/15 05:37:55;;;;;;;5.93;1.65;;;;;;;7.84;69.70;100970.44;5027661;28;20025;-62
2021/03/15 05:40:22;;;;;;;6.47;1.30;;;;;;;7.96;69.85;100979.31;5034904;28;20565;-63
2021/03/15 05:42:53;;;;;;;7.38;1.65;;;;;;;7.96;69.72;100989.38;5039742;28;20033;-65
2021/03/15 05:45:26;;;;;;;5.30;1.00;;;;;;;7.99;70.05;100991.59;5052763;28;20086;-62
2021/03/15 05:48:10;;;;;;;9.88;1.20;;;;;;;8.02;70.20;100989.19;5017675;28;20046;-62
2021/03/15 05:50:51;;;;;;;10.32;1.38;;;;;;;8.01;71.78;100993.00;5041299;28;20373;-62
2021/03/15 05:53:50;;;;;;;8.23;1.25;;;;;;;7.92;75.88;100989.06;5056761;28;20028;-64
2021/03/15 05:56:42;;;;;;;9.45;1.45;;;;;;;7.76;76.64;100979.00;5032999;28;20033;-64
2021/03/15 05:59:36;;;;;;;9.48;1.38;;;;;;;7.64;77.50;100976.34;5036582;28;20025;-64
2021/03/15 06:02:23;;;;;;;7.65;1.35;;;;;;;7.54;77.78;100972.38;5028554;28;20036;-64
2021/03/15 06:05:30;;;;;;;10.00;1.27;;;;;;;7.50;77.66;100959.56;5030791;28;20025;-62
2021/03/15 06:08:14;;;;;;;8.30;1.27;;;;;;;7.40;78.11;100958.28;5006745;28;20049;-62
2021/03/15 06:11:11;;;;;;;9.80;2.35;;;;;;;7.33;78.29;100957.63;5006099;28;20038;-63
2021/03/15 06:13:38;;;;;;;6.25;1.40;;;;;;;7.27;77.72;100953.19;5017608;28;20046;-62
2021/03/15 06:16:05;;;;;;;7.00;1.33;;;;;;;7.24;77.77;100949.03;5036925;28;20539;-64
2021/03/15 06:18:31;;;;;;;6.88;1.42;;;;;;;7.24;77.45;100950.94;5056986;28;20057;-64
2021/03/15 06:20:58;;;;;;;8.50;2.38;;;;;;;7.29;77.18;100952.94;5041440;28;20037;-62
2021/03/15 06:23:24;;;;;;;5.05;1.80;;;;;;;7.28;77.10;100941.22;5020629;28;20417;-62
2021/03/15 06:25:51;;;;;;;10.98;1.40;;;;;;;7.26;77.04;100940.69;5030028;28;20026;-62
2021/03/15 06:28:18;;;;;;;7.53;1.17;;;;;;;7.26;77.17;100951.53;5057024;28;20029;-65
2021/03/15 06:30:45;;;;;;;8.75;1.30;;;;;;;7.25;76.67;100950.69;5056154;28;20021;-63
2021/03/15 06:33:12;;;;;;;9.05;1.55;;;;;;;7.28;76.49;100943.13;5056655;28;20025;-63
2021/03/15 06:36:11;;;;;;;4.93;1.15;;;;;;;7.22;76.51;100942.22;5041749;28;20037;-62
2021/03/15 06:38:38;;;;;;;2.85;1.30;;;;;;;7.19;76.55;100934.59;5015577;28;20144;-62
2021/03/15 06:41:07;;;;;;;5.60;1.35;;;;;;;7.27;76.04;100953.19;5045524;28;20025;-63
2021/03/15 06:43:33;;;;;;;9.75;1.33;;;;;;;7.30;76.08;100955.38;5038454;28;20030;-64
2021/03/15 06:45:59;;;;;;;9.52;1.60;;;;;;;7.35;75.67;100950.06;5040472;28;20524;-62
2021/03/15 06:48:25;;;;;;;7.47;1.60;;;;;;;7.40;75.76;100941.19;5020394;28;20032;-61
2021/03/15 06:50:53;;;;;;;7.43;1.33;;;;;;;7.46;75.65;100945.66;5051057;28;20044;-63
2021/03/15 06:53:19;;;;;;;10.18;1.63;;;;;;;7.43;75.59;100918.19;5051916;28;20081;-62
2021/03/15 06:55:50;;;;;;;7.93;1.33;;;;;;;7.62;75.42;100943.19;5041442;28;20021;-62
2021/03/15 06:58:29;;;;;;;4.70;1.35;;;;;;;7.65;75.12;100948.13;5032241;28;20053;-64
2021/03/15 07:01:20;;;;;;;6.57;1.35;;;;;;;7.68;74.94;100956.63;5027388;28;20060;-62
2021/03/15 07:03:48;;;;;;;4.38;1.10;;;;;;;7.70;74.90;100968.03;5025288;28;20025;-64
2021/03/15 07:06:16;;;;;;;6.03;1.30;;;;;;;7.72;74.77;100960.47;5033291;28;20026;-62
2021/03/15 07:08:41;;;;;;;4.60;1.17;;;;;;;7.72;75.02;100962.38;5035620;28;20139;-62
2021/03/15 07:11:21;;;;;;;4.95;1.08;;;;;;;7.77;74.78;100965.16;5031739;28;20022;-62
2021/03/15 07:13:47;;;;;;;4.80;1.58;;;;;;;7.79;74.75;100975.78;5019047;28;20037;-64
2021/03/15 07:16:28;;;;;;;4.97;1.27;;;;;;;7.86;74.33;100984.59;5033132;28;20025;-62
2021/03/15 07:18:54;;;;;;;5.68;1.13;;;;;;;7.87;74.66;100987.06;5056294;28;20029;-63
2021/03/15 07:21:33;;;;;;;5.85;0.85;;;;;;;7.94;74.08;100999.66;5040747;28;20026;-61
2021/03/15 07:23:59;;;;;;;6.07;1.95;;;;;;;7.96;74.02;100997.53;5048617;28;20102;-62
2021/03/15 07:26:27;;;;;;;6.15;1.15;;;;;;;8.00;74.14;100998.66;5044643;28;20029;-62
2021/03/15 07:28:53;;;;;;;5.95;1.17;;;;;;;8.00;73.93;101004.94;5049175;28;20032;-62
2021/03/15 07:31:21;;;;;;;6.40;1.13;;;;;;;8.02;73.88;101013.63;5045226;28;20025;-63
2021/03/15 07:34:07;;;;;;;8.10;2.20;;;;;;;7.97;73.86;101004.59;5034188;28;20025;-63
2021/03/15 07:36:44;;;;;;;4.60;1.67;;;;;;;7.94;74.34;101021.38;5035715;28;20556;-64
2021/03/15 07:39:10;;;;;;;4.80;1.30;;;;;;;7.97;74.23;101023.63;5046273;28;20026;-65
2021/03/15 07:41:39;;;;;;;5.50;1.27;;;;;;;7.98;74.46;101026.09;5035326;28;20055;-62
2021/03/15 07:44:26;;;;;;;6.05;1.65;;;;;;;8.01;75.54;101032.91;5042824;28;20029;-61
2021/03/15 07:46:55;;;;;;;4.88;1.33;;;;;;;7.95;76.00;101036.63;5045185;28;20565;-62
2021/03/15 07:49:31;;;;;;;10.40;1.70;;;;;;;7.87;76.47;101045.97;5024231;28;20037;-62
2021/03/15 07:52:03;;;;;;;11.57;2.25;;;;;;;7.89;76.96;101046.56;5044397;28;20033;-62
2021/03/15 07:54:31;;;;;;;6.97;1.80;;;;;;;7.93;76.77;101039.59;5046121;28;20108;-63
2021/03/15 07:57:17;;;;;;;7.00;2.03;;;;;;;7.95;77.31;101042.03;5052599;28;20156;-62
2021/03/15 07:59:45;;;;;;;7.22;2.10;;;;;;;7.93;77.73;101039.59;5030777;28;20024;-62
2021/03/15 08:02:19;;;;;;;9.70;1.65;;;;;;;7.96;77.45;101041.78;5026381;28;20030;-63
2021/03/15 08:04:45;;;;;;;7.40;1.90;;;;;;;7.83;78.28;101018.47;5049965;28;20026;-61
2021/03/15 08:07:12;;;;;;;5.82;1.80;;;;;;;8.00;77.99;101031.25;5033400;28;20033;-63
2021/03/15 08:09:39;;;;;;;7.75;1.70;;;;;;;7.98;77.87;101030.66;5048056;28;20037;-62
2021/03/15 08:12:08;;;;;;;4.85;1.73;;;;;;;7.98;77.53;101025.25;5044182;28;20373;-62
2021/03/15 08:14:36;;;;;;;9.30;1.73;;;;;;;7.96;77.66;101022.78;5036595;28;20035;-63
2021/03/15 08:17:03;;;;;;;9.63;1.52;;;;;;;7.99;77.28;101026.88;5039719;28;20033;-64
2021/03/15 08:19:36;;;;;;;10.25;1.67;;;;;;;8.02;77.66;101034.56;5039238;28;20445;-63
2021/03/15 08:22:03;;;;;;;7.88;1.98;;;;;;;8.06;77.58;101026.75;5034334;28;20037;-64
2021/03/15 08:24:32;;;;;;;9.00;1.55;;;;;;;8.17;77.58;101023.13;5011494;28;20063;-62
2021/03/15 08:27:01;;;;;;;6.57;1.52;;;;;;;8.26;77.39;101024.38;5033556;28;20505;-62
2021/03/15 08:29:26;;;;;;;4.72;1.25;;;;;;;8.30;77.66;101028.22;5058776;28;20035;-63
2021/03/15 08:31:55;;;;;;;7.60;1.80;;;;;;;8.37;77.19;101024.50;5036527;28;20025;-62
2021/03/15 08:34:24;;;;;;;6.45;1.60;;;;;;;8.41;76.71;101026.47;5038928;28;20100;-63
2021/03/15 08:36:50;;;;;;;4.85;1.30;;;;;;;8.26;76.68;101001.78;5057241;28;20512;-62
2021/03/15 08:39:27;;;;;;;7.18;1.80;;;;;;;8.33;76.47;101022.31;5058610;28;20029;-63
2021/03/15 08:42:08;;;;;;;7.60;1.75;;;;;;;8.34;76.44;101026.66;5046162;28;20032;-63
2021/03/15 08:44:44;;;;;;;7.63;1.23;;;;;;;8.32;76.41;101030.69;5025576;28;20037;-63
2021/03/15 08:47:10;;;;;;;7.82;1.40;;;;;;;8.36;76.37;101012.81;5047536;28;20472;-63
2021/03/15 08:49:41;;;;;;;5.88;1.50;;;;;;;8.45;75.92;101018.66;5053631;28;20025;-66
2021/03/15 08:52:11;;;;;;;9.00;1.77;;;;;;;8.49;75.96;101023.38;5047385;28;20033;-63
2021/03/15 08:54:38;;;;;;;5.78;1.40;;;;;;;8.50;75.42;101035.09;5025725;28;20029;-63
2021/03/15 08:57:04;;;;;;;5.88;1.50;;;;;;;8.47;75.95;101035.56;5033830;28;20033;-63
2021/03/15 08:59:32;;;;;;;4.35;1.45;;;;;;;8.47;75.59;101030.94;5027666;28;20029;-63
2021/03/15 09:02:03;;;;;;;7.75;2.17;;;;;;;8.47;75.99;101022.78;5041071;28;20104;-63
2021/03/15 09:04:43;;;;;;;5.18;1.55;;;;;;;8.48;76.13;101019.00;5045914;28;20060;-62
2021/03/15 09:07:29;;;;;;;8.60;1.77;;;;;;;8.57;76.43;101013.97;5046551;28;20056;-66
2021/03/15 09:09:55;;;;;;;;;;;;;;;8.58;76.02;101006.63;5040541;28;20022;-63
2021/03/15 09:12:20;;;;;;;3.85;1.35;;;;;;;8.56;76.16;101006.06;5049143;28;19959;-63
2021/03/15 09:14:57;;;;;;;6.35;1.50;;;;;;;8.61;76.03;101004.25;5048592;28;20613;-65
2021/03/15 09:17:22;;;;;;;5.50;2.05;;;;;;;8.66;76.13;101009.78;5039077;28;20036;-63
2021/03/15 09:19:48;;;;;;;5.93;1.50;;;;;;;8.73;75.75;101012.28;5045802;28;20029;-65
2021/03/15 09:22:24;;;;;;;8.90;1.65;;;;;;;8.83;75.62;101014.34;5029479;28;20080;-63
2021/03/15 09:24:58;;;;;;;;;;;;;;;8.85;75.30;100998.56;5043863;28;20028;-64
2021/03/15 09:27:41;;;;;;;9.02;1.75;;;;;;;8.98;75.15;100998.22;5031171;28;19945;-63
2021/03/15 09:30:08;;;;;;;6.03;1.50;;;;;;;9.10;75.18;101000.81;5037462;28;20587;-62
2021/03/15 09:32:36;;;;;;;6.10;1.60;;;;;;;9.20;74.97;101010.16;5021840;28;20121;-62
2021/03/15 09:35:27;;;;;;;10.18;1.77;;;;;;;9.29;74.25;101014.09;5030753;28;20025;-65
2021/03/15 09:38:03;;;;;;;6.97;1.58;;;;;;;9.26;73.72;100990.91;5050111;28;20047;-61
2021/03/15 09:40:39;;;;;;;5.20;1.23;;;;;;;9.26;73.79;101017.31;5036131;28;20028;-62
2021/03/15 09:43:05;;;;;;;8.35;1.77;;;;;;;9.25;74.03;101013.78;5057598;28;20108;-62
2021/03/15 09:45:36;;;;;;;6.57;1.50;;;;;;;9.28;73.68;101004.28;5057254;28;20077;-64
2021/03/15 09:48:15;;;;;;;4.20;1.80;;;;;;;9.35;74.03;101007.63;5057496;28;20045;-65
2021/03/15 09:50:45;;;;;;;6.15;1.73;;;;;;;9.38;73.23;101022.59;5054070;28;20020;-64
2021/03/15 09:53:13;;;;;;;5.90;1.60;;;;;;;9.42;73.60;101002.78;5036505;28;20112;-63
2021/03/15 09:55:38;;;;;;;6.45;1.50;;;;;;;9.53;73.57;101011.06;5050402;28;20026;-62
2021/03/15 09:58:14;;;;;;;8.50;1.58;;;;;;;9.70;73.39;101008.22;5056786;28;20033;-63
2021/03/15 10:00:43;;;;;;;6.72;1.48;;;;;;;9.73;72.94;101007.72;5056745;28;20034;-63
2021/03/15 10:03:18;;;;;;;11.13;2.00;;;;;;;9.71;72.15;101009.88;5053844;28;20150;-63
2021/03/15 10:05:46;;;;;;;3.65;1.23;;;;;;;9.66;71.78;101005.22;5039141;28;20033;-63
2021/03/15 10:08:11;;;;;;;6.28;1.55;;;;;;;9.63;72.37;101013.06;5046283;28;20037;-63
2021/03/15 10:10:37;;;;;;;6.07;1.48;;;;;;;9.61;72.37;100997.81;5049923;28;20037;-64
2021/03/15 10:13:05;;;;;;;5.32;1.60;;;;;;;9.66;72.10;100998.94;5046690;28;20441;-64
2021/03/15 10:15:30;;;;;;;4.90;1.60;;;;;;;9.66;72.11;100993.50;5039136;28;20087;-63
2021/03/15 10:17:56;;;;;;;7.47;1.60;;;;;;;9.65;71.26;101003.56;5037168;28;20033;-63
2021/03/15 10:20:33;;;;;;;6.93;1.75;;;;;;;9.57;71.50;100990.41;5036949;28;20021;-63
2021/03/15 10:23:12;;;;;;;4.82;1.40;;;;;;;9.67;71.11;100990.50;5033111;28;20033;-62
2021/03/15 10:25:53;;;;;;;6.30;1.88;;;;;;;9.61;71.03;100981.47;5031803;28;20032;-63
2021/03/15 10:28:18;;;;;;;6.57;2.03;;;;;;;9.40;71.51;100952.41;5054547;28;20055;-63
2021/03/15 10:30:44;;;;;;;7.88;1.52;;;;;;;9.71;71.42;100974.47;5056836;28;20107;-64
2021/03/15 10:33:09;;;;;;;5.90;1.70;;;;;;;9.76;70.78;100990.84;5056679;28;20058;-65
2021/03/15 10:35:35;;;;;;;6.68;1.83;;;;;;;9.74;70.89;100974.78;5023603;28;20037;-63
2021/03/15 10:38:02;;;;;;;8.65;1.60;;;;;;;9.71;70.75;100974.47;5051844;28;20517;-64
2021/03/15 10:40:29;;;;;;;9.82;1.88;;;;;;;9.71;70.31;100974.47;5045409;28;20492;-63
2021/03/15 10:42:55;;;;;;;6.53;1.92;;;;;;;9.56;70.46;100950.66;5021619;28;20025;-65
2021/03/15 10:45:23;;;;;;;6.82;1.38;;;;;;;9.68;70.64;100977.72;5036995;28;20021;-63
2021/03/15 10:47:48;;;;;;;8.32;1.70;;;;;;;9.36;70.80;100924.91;5056020;28;20501;-64
2021/03/15 10:50:34;;;;;;;6.47;1.63;;;;;;;9.67;70.51;100979.63;5032170;28;20084;-63
2021/03/15 10:53:30;;;;;;;;;;;;;;;9.64;70.61;100980.13;5032839;28;20028;-62
2021/03/15 10:55:56;;;;;;;5.38;1.50;;;;;;;9.76;70.77;100966.34;5015954;28;19935;-63
2021/03/15 10:58:21;;;;;;;7.65;1.73;;;;;;;9.82;69.82;100965.34;5035515;28;20029;-64
2021/03/15 11:00:49;;;;;;;7.53;1.60;;;;;;;9.83;69.42;100958.81;5056035;28;20029;-65
2021/03/15 11:03:24;;;;;;;8.55;1.70;;;;;;;9.89;69.83;100955.03;5043453;28;20025;-64
2021/03/15 11:06:06;;;;;;;5.90;1.55;;;;;;;9.98;69.27;100947.19;5041482;28;20033;-63
2021/03/15 11:08:32;;;;;;;6.47;1.73;;;;;;;10.01;68.86;100943.13;5055921;28;20037;-65
2021/03/15 11:11:13;;;;;;;11.13;2.63;;;;;;;10.11;68.77;100939.66;5056005;28;20078;-64
2021/03/15 11:13:44;;;;;;;8.00;1.98;;;;;;;10.12;68.32;100944.84;5055952;28;20084;-63
2021/03/15 11:16:24;;;;;;;4.88;1.58;;;;;;;10.20;68.62;100936.19;5038003;28;20056;-63
2021/03/15 11:19:06;;;;;;;9.27;2.08;;;;;;;10.17;68.78;100923.06;5056090;28;20029;-63
2021/03/15 11:21:32;;;;;;;9.30;1.85;;;;;;;10.25;69.29;100924.50;5056009;28;20033;-65
2021/03/15 11:23:59;;;;;;;10.52;2.33;;;;;;;10.23;69.56;100943.84;5054300;28;20025;-63
2021/03/15 11:26:26;;;;;;;7.65;2.35;;;;;;;10.10;70.29;100908.84;5058780;28;20031;-63
2021/03/15 11:28:56;;;;;;;6.35;2.40;;;;;;;10.18;70.52;100919.25;5049403;28;20029;-63
2021/03/15 11:31:23;;;;;;;7.00;1.88;;;;;;;10.20;71.23;100927.19;5020552;28;20025;-63
2021/03/15 11:33:53;;;;;;;8.57;2.15;;;;;;;10.26;71.19;100915.22;5058426;28;20503;-63
2021/03/15 11:36:20;;;;;;;10.57;2.35;;;;;;;10.29;70.62;100903.78;5053288;28;20032;-64
2021/03/15 11:39:05;;;;;;;8.93;2.47;;;;;;;10.39;69.84;100908.53;5059528;28;20427;-63
2021/03/15 11:41:32;;;;;;;12.55;3.15;;;;;;;10.46;69.69;100905.53;5059615;28;20033;-65
2021/03/15 11:44:00;;;;;;;10.98;2.30;;;;;;;10.55;69.18;100904.78;5059816;28;20083;-63
2021/03/15 11:46:26;;;;;;;7.65;2.50;;;;;;;10.68;69.15;100908.94;5059565;28;20049;-63